Dost 1 — TCPI — position and weather

sailwx.info

Track history (hours):
 
Tides and Currents Weather Stations Pressure Air Temp Water Temp Dewpoint Dewpoint Depression Visibility Wind Speed Wind Dir Waves Ship Positions

Dost 1

Last reported at 2016-Feb-02 09:23 UTC. Time now 2016-Feb-08 01:46 UTC.
Position N 37°35' E 024°11'.

Length 115 m; draft 7.9 m.

Type: Cargo ship. MMSI: 271000303.

Date/timePositionNaut miles runAvg speedWind from/ knotsBaromVisibWave heightAir tempDewpointWater temp
2016-Feb-02 09:23N 37°35' E 024°11'1210.3
2016-Feb-02 08:13N 37°25' E 024°03'710.0
2016-Feb-02 07:33N 37°20' E 023°59'45710.2
2016-Jan-31 10:33N 36°40' E 014°29'1111.3
2016-Jan-31 09:33N 36°42' E 014°15'1111.0
2016-Jan-31 08:33N 36°45' E 014°02'1111.1
2016-Jan-31 07:33N 36°48' E 013°48'1111.1
2016-Jan-31 06:33N 36°51' E 013°35'1111.0
2016-Jan-31 05:33N 36°53' E 013°21'1311.1
2016-Jan-31 04:24N 36°56' E 013°06'  
2016-Jan-27 20:23N 36°00' W 005°11'1112.7
2016-Jan-27 19:30N 35°58' W 005°25'12811.3
2016-Jan-27 08:10N 36°17' W 008°01'811.2
2016-Jan-27 07:28N 36°19' W 008°10'2110.9
2016-Jan-27 05:31N 36°24' W 008°36'1111.1
2016-Jan-27 04:31N 36°27' W 008°50'1010.7
2016-Jan-27 03:33N 36°30' W 009°02'1111.0
2016-Jan-27 02:31N 36°33' W 009°15'1111.1
2016-Jan-27 01:31N 36°40' W 009°26'1010.3
2016-Jan-27 00:31N 36°48' W 009°34'1111.3
2016-Jan-26 23:31N 36°59' W 009°38'1010.5
2016-Jan-26 22:33N 37°09' W 009°40'1311.4
2016-Jan-26 21:28N 37°21' W 009°43'2110.8
2016-Jan-26 19:31N 37°42' W 009°49'1110.7
2016-Jan-26 18:28N 37°53' W 009°52'1111.3
2016-Jan-26 17:28N 38°04' W 009°56'1010.5
2016-Jan-26 16:31N 38°13' W 009°59'1010.3
2016-Jan-26 15:33N 38°23' W 010°02'1111.0
2016-Jan-26 14:33N 38°34' W 010°04'1110.7
2016-Jan-26 13:33N 38°44' W 010°07'1211.2
2016-Jan-26 12:31N 38°56' W 010°07'1111.0
2016-Jan-26 11:31N 39°07' W 010°07'1110.7
2016-Jan-26 10:28N 39°18' W 010°07'1111.1
2016-Jan-26 09:28N 39°29' W 010°07'1111.1
2016-Jan-26 08:28N 39°41' W 010°07'1010.6
2016-Jan-26 07:31N 39°51' W 010°07'1110.7
2016-Jan-26 06:28N 40°02' W 010°07'1010.7
2016-Jan-26 05:31N 40°12' W 010°07'1110.7
2016-Jan-26 04:31N 40°23' W 010°07'7510.6
2016-Jan-25 21:27N 41°37' W 010°06'1310.1
2016-Jan-25 20:12N 41°50' W 010°07'710.5
2016-Jan-25 19:33N 41°57' W 010°07'  
Track history (hours):
 
Tides and Currents Weather Stations Pressure Air Temp Water Temp Dewpoint Dewpoint Depression Visibility Wind Speed Wind Dir Waves Ship Positions

Dost 1

Last reported at 2016-Feb-02 09:23 UTC. Time now 2016-Feb-08 01:46 UTC.
Position N 37°35' E 024°11'.

Length 115 m; draft 7.9 m.

Type: Cargo ship. MMSI: 271000303.

Date/timePositionNaut miles runAvg speedWind from/ knotsBaromVisibWave heightAir tempDewpointWater temp
2016-Feb-02 09:23N 37°35' E 024°11'1210.3
2016-Feb-02 08:13N 37°25' E 024°03'710.0
2016-Feb-02 07:33N 37°20' E 023°59'45710.2
2016-Jan-31 10:33N 36°40' E 014°29'1111.3
2016-Jan-31 09:33N 36°42' E 014°15'1111.0
2016-Jan-31 08:33N 36°45' E 014°02'1111.1
2016-Jan-31 07:33N 36°48' E 013°48'1111.1
2016-Jan-31 06:33N 36°51' E 013°35'1111.0
2016-Jan-31 05:33N 36°53' E 013°21'1311.1
2016-Jan-31 04:24N 36°56' E 013°06'  
2016-Jan-27 20:23N 36°00' W 005°11'1112.7
2016-Jan-27 19:30N 35°58' W 005°25'12811.3
2016-Jan-27 08:10N 36°17' W 008°01'811.2
2016-Jan-27 07:28N 36°19' W 008°10'2110.9
2016-Jan-27 05:31N 36°24' W 008°36'1111.1
2016-Jan-27 04:31N 36°27' W 008°50'1010.7
2016-Jan-27 03:33N 36°30' W 009°02'1111.0
2016-Jan-27 02:31N 36°33' W 009°15'1111.1
2016-Jan-27 01:31N 36°40' W 009°26'1010.3
2016-Jan-27 00:31N 36°48' W 009°34'1111.3
2016-Jan-26 23:31N 36°59' W 009°38'1010.5
2016-Jan-26 22:33N 37°09' W 009°40'1311.4
2016-Jan-26 21:28N 37°21' W 009°43'2110.8
2016-Jan-26 19:31N 37°42' W 009°49'1110.7
2016-Jan-26 18:28N 37°53' W 009°52'1111.3
2016-Jan-26 17:28N 38°04' W 009°56'1010.5
2016-Jan-26 16:31N 38°13' W 009°59'1010.3
2016-Jan-26 15:33N 38°23' W 010°02'1111.0
2016-Jan-26 14:33N 38°34' W 010°04'1110.7
2016-Jan-26 13:33N 38°44' W 010°07'1211.2
2016-Jan-26 12:31N 38°56' W 010°07'1111.0
2016-Jan-26 11:31N 39°07' W 010°07'1110.7
2016-Jan-26 10:28N 39°18' W 010°07'1111.1
2016-Jan-26 09:28N 39°29' W 010°07'1111.1
2016-Jan-26 08:28N 39°41' W 010°07'1010.6
2016-Jan-26 07:31N 39°51' W 010°07'1110.7
2016-Jan-26 06:28N 40°02' W 010°07'1010.7
2016-Jan-26 05:31N 40°12' W 010°07'1110.7
2016-Jan-26 04:31N 40°23' W 010°07'7510.6
2016-Jan-25 21:27N 41°37' W 010°06'1310.1
2016-Jan-25 20:12N 41°50' W 010°07'710.5
2016-Jan-25 19:33N 41°57' W 010°07'  

Dump ship's entire track history